BNE weather

Brisbane International Airport
Brisbane, Queensland, Australia

Public forecast

Using degrees Celsius for public forecast. Weather courtesy of forecast.io.

METAR (pilot weather report)

Retrieved 2018/06/23 13:30 UTC (0 seconds ago):

YBBN 231330Z 22004KT CAVOK 12/10 Q1024 NOSIG

TAF (pilot weather forecast)

Retrieved 2018/06/23 12:00 UTC (1 hour ago):

TAF YBBN 231117Z 2312/2418 20006KT CAVOK FM240300 08008KT CAVOK FM240800 14012KT CAVOK FM241100 19007KT 9999 SCT030 SCT070